createdAt,value
2022-10-11T00:01:03.202Z,13.90
2022-10-11T00:03:31.356Z,13.90
2022-10-11T00:05:59.485Z,13.90
2022-10-11T00:08:27.562Z,13.90
2022-10-11T00:11:00.886Z,13.90
2022-10-11T00:13:29.672Z,13.90
2022-10-11T00:15:59.246Z,13.90
2022-10-11T00:18:27.696Z,13.90
2022-10-11T00:21:04.115Z,13.90
2022-10-11T00:23:33.102Z,13.90
2022-10-11T00:26:04.290Z,13.90
2022-10-11T00:28:33.548Z,13.90
2022-10-11T00:31:05.289Z,13.90
2022-10-11T00:33:33.609Z,13.90
2022-10-11T00:36:02.318Z,13.90
2022-10-11T00:38:32.002Z,13.90
2022-10-11T00:41:01.352Z,14.00
2022-10-11T00:43:32.854Z,14.00
2022-10-11T00:46:26.904Z,14.00
2022-10-11T00:49:02.078Z,14.00
2022-10-11T00:51:42.170Z,14.00
2022-10-11T00:54:16.062Z,13.90
2022-10-11T00:56:49.749Z,13.90
2022-10-11T00:59:24.431Z,13.90
2022-10-11T01:01:54.418Z,13.90
2022-10-11T01:04:22.804Z,13.80
2022-10-11T01:06:52.730Z,13.80
2022-10-11T01:09:23.155Z,13.70
2022-10-11T01:11:54.409Z,13.70
2022-10-11T01:15:04.082Z,13.60
2022-10-11T01:17:45.775Z,13.50
2022-10-11T01:20:38.643Z,13.40
2022-10-11T01:23:57.988Z,13.30
2022-10-11T01:26:55.787Z,13.20
2022-10-11T01:29:41.940Z,13.10
2022-10-11T01:32:18.232Z,13.10
2022-10-11T01:34:58.147Z,13.00
2022-10-11T01:37:34.250Z,12.90
2022-10-11T01:40:10.515Z,12.90
2022-10-11T01:42:41.977Z,12.90
2022-10-11T01:45:16.100Z,12.90
2022-10-11T01:47:46.622Z,12.80
2022-10-11T01:50:46.687Z,12.70
2022-10-11T01:53:45.148Z,12.60
2022-10-11T01:56:33.759Z,12.60
2022-10-11T01:59:23.325Z,12.50
2022-10-11T02:02:01.596Z,12.50
2022-10-11T02:04:43.635Z,12.50
2022-10-11T02:07:22.501Z,12.50
2022-10-11T02:10:00.812Z,12.60
2022-10-11T02:12:38.665Z,12.60
2022-10-11T02:15:11.496Z,12.70
2022-10-11T02:17:46.782Z,12.70
2022-10-11T02:20:22.851Z,12.80
2022-10-11T02:22:58.747Z,12.80
2022-10-11T02:25:31.476Z,12.90
2022-10-11T02:28:04.692Z,12.90
2022-10-11T02:30:35.042Z,12.90
2022-10-11T02:33:07.745Z,13.00
2022-10-11T02:35:45.248Z,13.00
2022-10-11T02:38:21.540Z,13.00
2022-10-11T02:40:58.548Z,13.10
2022-10-11T02:43:37.307Z,13.10
2022-10-11T02:46:09.545Z,13.20
2022-10-11T02:48:39.685Z,13.20
2022-10-11T02:51:14.946Z,13.20
2022-10-11T02:53:43.088Z,13.20
2022-10-11T02:56:11.375Z,13.30
2022-10-11T02:58:39.645Z,13.30
2022-10-11T03:01:07.995Z,13.30
2022-10-11T03:03:36.171Z,13.30
2022-10-11T03:06:05.883Z,13.40
2022-10-11T03:08:35.834Z,13.40
2022-10-11T03:11:04.055Z,13.40
2022-10-11T03:13:32.209Z,13.40
2022-10-11T03:16:03.631Z,13.50
2022-10-11T03:18:32.578Z,13.50
2022-10-11T03:21:00.787Z,13.50
2022-10-11T03:23:29.216Z,13.50
2022-10-11T03:25:58.791Z,13.50
2022-10-11T03:28:27.109Z,13.60
2022-10-11T03:30:55.725Z,13.60
2022-10-11T03:33:23.895Z,13.60
2022-10-11T03:35:52.133Z,13.60
2022-10-11T03:38:23.551Z,13.60
2022-10-11T03:40:51.861Z,13.60
2022-10-11T03:43:21.426Z,13.60
2022-10-11T03:45:49.578Z,13.60
2022-10-11T03:48:17.687Z,13.70
2022-10-11T03:50:45.766Z,13.60
2022-10-11T03:53:13.872Z,13.60
2022-10-11T03:55:42.937Z,13.60
2022-10-11T03:58:11.235Z,13.70
2022-10-11T04:00:40.783Z,13.70
2022-10-11T04:03:08.905Z,13.70
2022-10-11T04:05:37.065Z,13.70
2022-10-11T04:08:09.827Z,13.70
2022-10-11T04:10:40.775Z,13.70
2022-10-11T04:13:10.380Z,13.70
2022-10-11T04:15:41.252Z,13.70
2022-10-11T04:18:10.196Z,13.80
2022-10-11T04:20:38.603Z,13.80
2022-10-11T04:23:06.760Z,13.80
2022-10-11T04:25:34.916Z,13.70
2022-10-11T04:28:03.215Z,13.80
2022-10-11T04:30:31.540Z,13.80
2022-10-11T04:33:01.171Z,13.80
2022-10-11T04:35:29.387Z,13.80
2022-10-11T04:37:57.509Z,13.80
2022-10-11T04:40:25.587Z,13.80
2022-10-11T04:42:53.794Z,13.80
2022-10-11T04:45:22.141Z,13.90
2022-10-11T04:47:50.490Z,13.90
2022-10-11T04:50:20.199Z,13.90
2022-10-11T04:52:48.606Z,13.90
2022-10-11T04:55:16.840Z,13.90
2022-10-11T04:57:44.942Z,13.90
2022-10-11T05:00:14.697Z,13.90
2022-10-11T05:02:42.883Z,13.90
2022-10-11T05:05:12.913Z,13.90
2022-10-11T05:07:42.379Z,14.00
2022-10-11T05:10:11.639Z,14.00
2022-10-11T05:12:39.749Z,14.00
2022-10-11T05:15:09.798Z,14.00
2022-10-11T05:17:37.990Z,14.00
2022-10-11T05:20:07.727Z,14.00
2022-10-11T05:22:35.921Z,14.00
2022-10-11T05:25:06.471Z,14.10
2022-10-11T05:27:34.613Z,14.10
2022-10-11T05:30:02.920Z,14.10
2022-10-11T05:32:31.114Z,14.10
2022-10-11T05:34:59.256Z,14.10
2022-10-11T05:37:27.503Z,14.10
2022-10-11T05:39:55.612Z,14.10
2022-10-11T05:42:25.048Z,14.10
2022-10-11T05:44:53.144Z,14.10
2022-10-11T05:47:21.453Z,14.20
2022-10-11T05:49:49.535Z,14.20
2022-10-11T05:52:20.395Z,14.20
2022-10-11T05:54:48.799Z,14.20
2022-10-11T05:57:17.251Z,14.20
2022-10-11T05:59:46.726Z,14.20
2022-10-11T06:02:15.239Z,14.20
2022-10-11T06:04:43.562Z,14.20
2022-10-11T06:07:11.700Z,14.20
2022-10-11T06:09:39.988Z,14.20
2022-10-11T06:12:08.282Z,14.20
2022-10-11T06:14:37.157Z,14.20
2022-10-11T06:17:06.638Z,14.30
2022-10-11T06:19:34.816Z,14.30
2022-10-11T06:22:03.217Z,14.30
2022-10-11T06:24:31.356Z,14.30
2022-10-11T06:26:59.488Z,14.30
2022-10-11T06:29:27.531Z,14.40
2022-10-11T06:31:55.604Z,14.40
2022-10-11T06:34:25.269Z,14.50
2022-10-11T06:36:53.516Z,14.50
2022-10-11T06:39:21.745Z,14.50
2022-10-11T06:41:49.837Z,14.50
2022-10-11T06:44:19.034Z,14.50
2022-10-11T06:46:47.112Z,14.50
2022-10-11T06:49:19.345Z,14.60
2022-10-11T06:51:51.830Z,14.60
2022-10-11T06:54:19.961Z,14.60
2022-10-11T06:56:48.086Z,14.60
2022-10-11T06:59:16.322Z,14.70
2022-10-11T07:01:44.502Z,14.70
2022-10-11T07:04:12.605Z,14.70
2022-10-11T07:06:42.521Z,14.70
2022-10-11T07:09:12.195Z,14.80
2022-10-11T07:11:40.345Z,14.80
2022-10-11T07:14:08.934Z,14.90
2022-10-11T07:16:37.469Z,14.90
2022-10-11T07:19:07.882Z,15.00
2022-10-11T07:21:36.838Z,15.10
2022-10-11T07:24:05.719Z,15.20
2022-10-11T07:26:38.557Z,15.30
2022-10-11T07:29:09.122Z,15.40
2022-10-11T07:31:39.433Z,15.50
2022-10-11T07:34:07.762Z,15.50
2022-10-11T07:36:36.024Z,15.60
2022-10-11T07:39:06.217Z,15.60
2022-10-11T07:41:38.112Z,15.70
2022-10-11T07:44:07.910Z,15.80
2022-10-11T07:46:36.035Z,15.90
2022-10-11T07:49:04.210Z,16.00
2022-10-11T07:51:34.318Z,16.20
2022-10-11T07:54:07.219Z,16.40
2022-10-11T07:56:39.877Z,16.40
2022-10-11T07:59:08.141Z,16.50
2022-10-11T08:01:36.328Z,16.60
2022-10-11T08:04:04.624Z,16.70
2022-10-11T08:06:34.250Z,16.80
2022-10-11T08:09:03.338Z,16.90
2022-10-11T08:11:37.580Z,17.00
2022-10-11T08:14:11.193Z,17.10
2022-10-11T08:16:40.824Z,17.20
2022-10-11T08:19:09.154Z,17.20
2022-10-11T08:21:37.815Z,17.30
2022-10-11T08:24:08.321Z,17.30
2022-10-11T08:26:37.827Z,17.30
2022-10-11T08:29:06.749Z,17.30
2022-10-11T08:31:36.990Z,17.40
2022-10-11T08:34:05.161Z,17.40
2022-10-11T08:36:33.550Z,17.40
2022-10-11T08:39:02.298Z,17.50
2022-10-11T08:41:41.871Z,17.60
2022-10-11T08:44:51.750Z,17.60
2022-10-11T08:47:27.509Z,17.70
2022-10-11T08:49:57.013Z,17.70
2022-10-11T08:52:32.035Z,17.70
2022-10-11T08:55:06.128Z,17.80
2022-10-11T08:57:40.011Z,17.80
2022-10-11T09:00:16.242Z,17.80
2022-10-11T09:03:08.060Z,17.80
2022-10-11T09:05:50.368Z,17.80
2022-10-11T09:08:29.241Z,17.90
2022-10-11T09:11:07.236Z,18.00
2022-10-11T09:14:03.425Z,18.00
2022-10-11T09:16:50.597Z,18.10
2022-10-11T09:19:50.161Z,18.10
2022-10-11T09:22:30.849Z,18.00
2022-10-11T09:25:19.878Z,17.90
2022-10-11T09:28:06.443Z,17.80
2022-10-11T09:30:39.998Z,17.70
2022-10-11T09:33:19.901Z,17.80
2022-10-11T09:35:51.550Z,17.90
2022-10-11T09:38:33.385Z,18.10
2022-10-11T09:41:14.272Z,18.30
2022-10-11T09:43:51.633Z,18.40
2022-10-11T09:46:30.665Z,18.60
2022-10-11T09:49:02.055Z,18.90
2022-10-11T09:51:31.168Z,19.10
2022-10-11T09:54:03.001Z,19.30
2022-10-11T09:56:34.600Z,19.30
2022-10-11T09:59:26.452Z,19.20
2022-10-11T10:02:23.401Z,19.00
2022-10-11T10:05:19.290Z,18.80
2022-10-11T10:08:07.998Z,18.70
2022-10-11T10:10:41.472Z,18.50
2022-10-11T10:13:23.709Z,18.40
2022-10-11T10:15:55.680Z,18.30
2022-10-11T10:18:33.945Z,18.20
2022-10-11T10:21:03.849Z,18.10
2022-10-11T10:23:36.323Z,18.10
2022-10-11T10:26:18.325Z,18.20
2022-10-11T10:29:01.696Z,18.30
2022-10-11T10:31:55.246Z,18.30
2022-10-11T10:34:32.546Z,18.40
2022-10-11T10:37:07.473Z,18.50
2022-10-11T10:39:43.005Z,18.60
2022-10-11T10:42:18.184Z,18.70
2022-10-11T10:44:58.920Z,18.90
2022-10-11T10:47:54.596Z,19.20
2022-10-11T10:50:30.133Z,19.30
2022-10-11T10:53:13.567Z,19.40
2022-10-11T10:55:45.895Z,19.50
2022-10-11T10:58:37.685Z,19.50
2022-10-11T11:01:16.907Z,19.70
2022-10-11T11:03:51.834Z,19.80
2022-10-11T11:06:35.656Z,19.90
2022-10-11T11:09:28.760Z,19.90
2022-10-11T11:12:15.053Z,20.00
2022-10-11T11:15:00.508Z,20.10
2022-10-11T11:17:46.078Z,20.30
2022-10-11T11:20:31.731Z,20.40
2022-10-11T11:23:10.084Z,20.70
2022-10-11T11:25:49.966Z,20.90
2022-10-11T11:28:34.344Z,21.00
2022-10-11T11:31:18.188Z,21.00
2022-10-11T11:34:02.658Z,21.00
2022-10-11T11:36:41.458Z,20.90
2022-10-11T11:39:19.836Z,20.80
2022-10-11T11:41:54.916Z,20.80
2022-10-11T11:44:31.107Z,21.00
2022-10-11T11:47:05.706Z,21.40
2022-10-11T11:49:38.252Z,21.70
2022-10-11T11:52:09.560Z,21.90
2022-10-11T11:54:51.935Z,22.40
2022-10-11T11:57:36.654Z,23.00
2022-10-11T12:00:14.159Z,23.60
2022-10-11T12:02:51.816Z,24.00
2022-10-11T12:05:24.875Z,24.10
2022-10-11T12:08:00.707Z,23.70
2022-10-11T12:10:38.141Z,23.20
2022-10-11T12:13:22.134Z,22.70
2022-10-11T12:16:13.072Z,22.30
2022-10-11T12:19:00.554Z,22.00
2022-10-11T12:21:33.728Z,21.80
2022-10-11T12:24:11.183Z,21.70
2022-10-11T12:26:45.314Z,21.60
2022-10-11T12:29:49.434Z,21.70
2022-10-11T12:32:52.802Z,21.90
2022-10-11T12:36:04.081Z,22.20
2022-10-11T12:38:37.796Z,22.80
2022-10-11T12:41:53.613Z,23.20
2022-10-11T12:44:26.213Z,23.20
2022-10-11T12:47:36.165Z,23.00
2022-10-11T12:50:17.762Z,22.70
2022-10-11T12:53:01.776Z,22.40
2022-10-11T12:55:48.922Z,22.20
2022-10-11T12:58:29.685Z,22.00
2022-10-11T13:01:29.304Z,21.80
2022-10-11T13:04:07.277Z,21.70
2022-10-11T13:06:45.646Z,21.80
2022-10-11T13:09:25.839Z,21.80
2022-10-11T13:11:59.808Z,21.90
2022-10-11T13:14:35.650Z,22.00
2022-10-11T13:17:17.623Z,22.20
2022-10-11T13:19:45.817Z,22.20
2022-10-11T13:22:20.420Z,22.10
2022-10-11T13:24:48.699Z,22.00
2022-10-11T13:27:22.019Z,22.00
2022-10-11T13:29:55.315Z,21.90
2022-10-11T13:32:27.133Z,21.90
2022-10-11T13:34:58.535Z,21.70
2022-10-11T13:37:29.462Z,21.50
2022-10-11T13:39:58.860Z,21.30
2022-10-11T13:42:31.582Z,21.10
2022-10-11T13:45:02.000Z,20.80
2022-10-11T13:47:33.183Z,20.60
2022-10-11T13:50:20.699Z,20.40
2022-10-11T13:52:56.025Z,20.20
2022-10-11T13:55:29.282Z,20.00
2022-10-11T13:58:00.739Z,19.80
2022-10-11T14:00:37.535Z,19.70
2022-10-11T14:03:19.970Z,19.60
2022-10-11T14:05:56.920Z,19.50
2022-10-11T14:08:32.962Z,19.50
2022-10-11T14:11:06.295Z,19.50
2022-10-11T14:13:38.977Z,19.50
2022-10-11T14:16:12.497Z,19.50
2022-10-11T14:18:46.626Z,19.60
2022-10-11T14:21:35.705Z,19.60
2022-10-11T14:24:07.612Z,19.50
2022-10-11T14:26:39.351Z,19.60
2022-10-11T14:29:15.977Z,19.70
2022-10-11T14:31:45.573Z,19.80
2022-10-11T14:34:22.462Z,19.90
2022-10-11T14:36:53.002Z,20.00
2022-10-11T14:39:23.503Z,20.00
2022-10-11T14:41:53.093Z,20.00
2022-10-11T14:44:23.156Z,19.90
2022-10-11T14:46:55.128Z,19.80
2022-10-11T14:49:25.971Z,19.70
2022-10-11T14:51:57.033Z,19.50
2022-10-11T14:54:27.572Z,19.50
2022-10-11T14:56:59.193Z,19.40
2022-10-11T14:59:32.611Z,19.40
2022-10-11T15:02:02.401Z,19.30
2022-10-11T15:04:30.879Z,19.30
2022-10-11T15:06:59.840Z,19.30
2022-10-11T15:09:31.834Z,19.30
2022-10-11T15:12:00.204Z,19.30
2022-10-11T15:14:28.457Z,19.20
2022-10-11T15:16:56.997Z,19.20
2022-10-11T15:19:26.762Z,19.10
2022-10-11T15:21:54.947Z,19.10
2022-10-11T15:24:23.299Z,19.10
2022-10-11T15:26:51.539Z,19.10
2022-10-11T15:29:21.860Z,19.10
2022-10-11T15:31:50.548Z,19.10
2022-10-11T15:34:21.320Z,19.10
2022-10-11T15:36:51.230Z,19.20
2022-10-11T15:39:28.211Z,19.30
2022-10-11T15:41:56.472Z,19.40
2022-10-11T15:44:24.884Z,19.40
2022-10-11T15:46:53.305Z,19.30
2022-10-11T15:49:21.858Z,19.20
2022-10-11T15:51:51.379Z,19.10
2022-10-11T15:54:19.503Z,19.00
2022-10-11T15:56:47.670Z,18.90
2022-10-11T15:59:15.859Z,18.80
2022-10-11T16:01:44.074Z,18.60
2022-10-11T16:04:12.168Z,18.50
2022-10-11T16:06:41.011Z,18.40
2022-10-11T16:09:10.550Z,18.20
2022-10-11T16:11:38.663Z,18.10
2022-10-11T16:14:07.496Z,18.00
2022-10-11T16:16:35.719Z,17.90
2022-10-11T16:19:03.948Z,17.70
2022-10-11T16:21:32.110Z,17.60
2022-10-11T16:24:00.195Z,17.50
2022-10-11T16:26:29.786Z,17.40
2022-10-11T16:28:58.146Z,17.20
2022-10-11T16:31:26.284Z,17.10
2022-10-11T16:33:54.446Z,17.00
2022-10-11T16:36:36.076Z,16.90
2022-10-11T16:39:09.619Z,16.80
2022-10-11T16:41:39.317Z,16.60
2022-10-11T16:44:08.534Z,16.50
2022-10-11T16:46:36.643Z,16.40
2022-10-11T16:49:05.467Z,16.30
2022-10-11T16:51:33.667Z,16.20
2022-10-11T16:54:02.257Z,16.00
2022-10-11T16:56:30.450Z,15.90
2022-10-11T16:59:00.508Z,15.80
2022-10-11T17:01:29.693Z,15.70
2022-10-11T17:03:58.158Z,15.60
2022-10-11T17:06:27.008Z,15.50
2022-10-11T17:08:56.172Z,15.40
2022-10-11T17:11:24.607Z,15.40
2022-10-11T17:13:54.201Z,15.30
2022-10-11T17:16:23.985Z,15.20
2022-10-11T17:18:52.675Z,15.10
2022-10-11T17:21:22.905Z,15.00
2022-10-11T17:23:51.865Z,14.90
2022-10-11T17:26:25.071Z,14.80
2022-10-11T17:28:54.034Z,14.80
2022-10-11T17:31:24.273Z,14.70
2022-10-11T17:33:53.115Z,14.70
2022-10-11T17:36:27.758Z,14.60
2022-10-11T17:38:56.080Z,14.50
2022-10-11T17:41:29.440Z,14.50
2022-10-11T17:44:01.068Z,14.40
2022-10-11T17:46:32.427Z,14.40
2022-10-11T17:49:01.970Z,14.40
2022-10-11T17:51:30.085Z,14.40
2022-10-11T17:53:58.413Z,14.40
2022-10-11T17:56:31.441Z,14.40
2022-10-11T17:59:03.274Z,14.40
2022-10-11T18:01:32.898Z,14.30
2022-10-11T18:04:04.161Z,14.40
2022-10-11T18:06:38.777Z,14.30
2022-10-11T18:09:07.256Z,14.30
2022-10-11T18:11:36.407Z,14.30
2022-10-11T18:14:05.495Z,14.30
2022-10-11T18:16:36.827Z,14.30
2022-10-11T18:19:08.790Z,14.30
2022-10-11T18:21:37.703Z,14.30
2022-10-11T18:24:10.790Z,14.30
2022-10-11T18:26:39.992Z,14.30
2022-10-11T18:29:11.066Z,14.30
2022-10-11T18:31:41.501Z,14.30
2022-10-11T18:34:11.357Z,14.40
2022-10-11T18:36:40.263Z,14.40
2022-10-11T18:39:13.234Z,14.40
2022-10-11T18:41:44.398Z,14.50
2022-10-11T18:44:15.373Z,14.50
2022-10-11T18:46:46.160Z,14.50
2022-10-11T18:49:15.107Z,14.50
2022-10-11T18:51:47.915Z,14.50
2022-10-11T18:54:20.338Z,14.50
2022-10-11T18:56:50.046Z,14.50
2022-10-11T18:59:18.563Z,14.50
2022-10-11T19:01:48.169Z,14.60
2022-10-11T19:04:16.929Z,14.60
2022-10-11T19:06:48.845Z,14.60
2022-10-11T19:09:21.774Z,14.60
2022-10-11T19:11:51.461Z,14.60
2022-10-11T19:14:22.497Z,14.60
2022-10-11T19:16:53.357Z,14.60
2022-10-11T19:19:25.379Z,14.60
2022-10-11T19:21:54.011Z,14.60
2022-10-11T19:24:24.799Z,14.60
2022-10-11T19:26:57.360Z,14.60
2022-10-11T19:29:29.721Z,14.60
2022-10-11T19:32:02.947Z,14.60
2022-10-11T19:34:32.656Z,14.60
2022-10-11T19:37:03.279Z,14.60
2022-10-11T19:39:32.055Z,14.60
2022-10-11T19:42:01.604Z,14.60
2022-10-11T19:44:29.767Z,14.60
2022-10-11T19:47:04.958Z,14.60
2022-10-11T19:49:33.725Z,14.50
2022-10-11T19:52:02.113Z,14.50
2022-10-11T19:54:30.506Z,14.50
2022-10-11T19:56:58.652Z,14.50
2022-10-11T19:59:27.994Z,14.40
2022-10-11T20:01:56.229Z,14.40
2022-10-11T20:07:14.210Z,14.40
2022-10-11T20:09:42.704Z,14.30
2022-10-11T20:12:10.856Z,14.30
2022-10-11T20:14:39.044Z,14.30
2022-10-11T20:17:07.292Z,14.30
2022-10-11T20:19:36.804Z,14.30
2022-10-11T20:22:05.066Z,14.30
2022-10-11T20:24:34.468Z,14.30
2022-10-11T20:27:04.949Z,14.30
2022-10-11T20:29:33.234Z,14.30
2022-10-11T20:32:01.529Z,14.20
2022-10-11T20:34:30.319Z,14.20
2022-10-11T20:36:59.959Z,14.20
2022-10-11T20:39:28.261Z,14.10
2022-10-11T20:41:56.422Z,14.10
2022-10-11T20:44:24.777Z,14.10
2022-10-11T20:46:52.877Z,14.00
2022-10-11T20:49:22.357Z,14.00
2022-10-11T20:51:51.026Z,14.00
2022-10-11T20:54:20.788Z,13.90
2022-10-11T20:56:49.113Z,13.90
2022-10-11T20:59:17.315Z,13.90
2022-10-11T21:01:45.553Z,13.90
2022-10-11T21:04:19.908Z,13.80
2022-10-11T21:06:49.245Z,13.80
2022-10-11T21:09:18.984Z,13.80
2022-10-11T21:11:48.430Z,13.70
2022-10-11T21:14:17.178Z,13.70
2022-10-11T21:16:45.267Z,13.70
2022-10-11T21:19:16.087Z,13.60
2022-10-11T21:21:49.681Z,13.60
2022-10-11T21:24:21.347Z,13.60
2022-10-11T21:26:50.832Z,13.50
2022-10-11T21:29:19.251Z,13.50
2022-10-11T21:31:47.418Z,13.50
2022-10-11T21:34:15.613Z,13.40
2022-10-11T21:36:44.225Z,13.30
2022-10-11T21:39:12.332Z,13.30
2022-10-11T21:41:42.081Z,13.30
2022-10-11T21:44:11.577Z,13.30
2022-10-11T21:47:05.591Z,13.20
2022-10-11T21:49:28.219Z,13.20
2022-10-11T21:51:56.540Z,13.20
2022-10-11T21:54:24.612Z,13.20
2022-10-11T21:56:52.733Z,13.20
2022-10-11T21:59:22.229Z,13.20
2022-10-11T22:01:56.922Z,13.10
2022-10-11T22:04:27.548Z,13.10
2022-10-11T22:06:55.638Z,13.10
2022-10-11T22:09:23.978Z,13.10
2022-10-11T22:11:52.095Z,13.10
2022-10-11T22:14:21.631Z,13.10
2022-10-11T22:16:49.806Z,13.00
2022-10-11T22:19:17.931Z,13.00
2022-10-11T22:21:46.054Z,12.90
2022-10-11T22:24:14.260Z,12.90
2022-10-11T22:26:42.364Z,12.80
2022-10-11T22:29:10.613Z,12.80
2022-10-11T22:31:40.128Z,12.70
2022-10-11T22:34:08.235Z,12.70
2022-10-11T22:36:36.586Z,12.60
2022-10-11T22:39:08.048Z,12.60
2022-10-11T22:41:37.140Z,12.60
2022-10-11T22:44:05.900Z,12.50
2022-10-11T22:46:34.084Z,12.50
2022-10-11T22:49:03.690Z,12.40
2022-10-11T22:51:32.513Z,12.40
2022-10-11T22:54:00.628Z,12.40
2022-10-11T22:56:28.680Z,12.40
2022-10-11T22:58:56.792Z,12.30
2022-10-11T23:01:24.921Z,12.30
2022-10-11T23:03:53.882Z,12.30
2022-10-11T23:06:23.513Z,12.30
2022-10-11T23:08:51.618Z,12.30
2022-10-11T23:11:19.741Z,12.20
2022-10-11T23:13:47.846Z,12.20
2022-10-11T23:16:15.904Z,12.20
2022-10-11T23:18:44.180Z,12.20
2022-10-11T23:21:13.186Z,12.20
2022-10-11T23:23:42.643Z,12.10
2022-10-11T23:26:13.740Z,12.10
2022-10-11T23:28:42.534Z,12.10
2022-10-11T23:31:13.666Z,12.10
2022-10-11T23:33:41.810Z,12.10
2022-10-11T23:36:15.939Z,12.10
2022-10-11T23:38:46.120Z,12.00
2022-10-11T23:41:14.276Z,12.00
2022-10-11T23:43:42.336Z,12.00
2022-10-11T23:46:10.421Z,12.00
2022-10-11T23:48:38.567Z,12.00
2022-10-11T23:51:07.785Z,12.00
2022-10-11T23:53:36.362Z,12.00
2022-10-11T23:56:06.942Z,12.00
2022-10-11T23:58:35.292Z,11.90
